<?xml version="1.0" encoding="UTF-8" standalone="no" ?>
<gpx xmlns="http://www.topografix.com/GPX/1/1" xmlns:xsi="http://www.w3.org/2001/XMLSchema-instance" xsi:schemaLocation="http://www.topografix.com/GPX/1/1 http://www.topografix.com/GPX/1/1/gpx.xsd" version="1.1" creator="VisuGPX - https://www.visugpx.com">
  <metadata>
    <name>Larre</name>
    <desc><![CDATA[départ place de la mairie]]></desc>
  </metadata>
  <trk>
    <name><![CDATA[Larre_1]]></name>
    <trkseg>
      <trkpt lat="47.712" lon="-2.5155">
        <ele>-49</ele>
        <time>2012-02-17T08:37:40</time>
      </trkpt>
      <trkpt lat="47.7119" lon="-2.51556">
        <ele>-48</ele>
        <time>2012-02-17T08:38:41</time>
      </trkpt>
      <trkpt lat="47.7119" lon="-2.51556">
        <ele>-48</ele>
        <time>2012-02-17T08:39:41</time>
      </trkpt>
      <trkpt lat="47.7119" lon="-2.51557">
        <ele>-48</ele>
        <time>2012-02-17T08:40:42</time>
      </trkpt>
      <trkpt lat="47.7119" lon="-2.51553">
        <ele>-49</ele>
        <time>2012-02-17T08:41:42</time>
      </trkpt>
      <trkpt lat="47.7119" lon="-2.51555">
        <ele>-49</ele>
        <time>2012-02-17T08:42:43</time>
      </trkpt>
      <trkpt lat="47.7119" lon="-2.51493">
        <ele>-50</ele>
        <time>2012-02-17T08:43:44</time>
      </trkpt>
      <trkpt lat="47.7116" lon="-2.51419">
        <ele>-56</ele>
        <time>2012-02-17T08:44:43</time>
      </trkpt>
      <trkpt lat="47.7111" lon="-2.51355">
        <ele>-62</ele>
        <time>2012-02-17T08:45:44</time>
      </trkpt>
      <trkpt lat="47.7107" lon="-2.51322">
        <ele>-61</ele>
        <time>2012-02-17T08:46:44</time>
      </trkpt>
      <trkpt lat="47.7107" lon="-2.51326">
        <ele>-59</ele>
        <time>2012-02-17T08:47:44</time>
      </trkpt>
      <trkpt lat="47.7103" lon="-2.51309">
        <ele>-58</ele>
        <time>2012-02-17T08:48:45</time>
      </trkpt>
      <trkpt lat="47.7096" lon="-2.51353">
        <ele>-58</ele>
        <time>2012-02-17T08:49:45</time>
      </trkpt>
      <trkpt lat="47.709" lon="-2.5131">
        <ele>-55</ele>
        <time>2012-02-17T08:50:45</time>
      </trkpt>
      <trkpt lat="47.7089" lon="-2.51209">
        <ele>-53</ele>
        <time>2012-02-17T08:51:45</time>
      </trkpt>
      <trkpt lat="47.7087" lon="-2.51105">
        <ele>-47</ele>
        <time>2012-02-17T08:52:46</time>
      </trkpt>
      <trkpt lat="47.7085" lon="-2.51028">
        <ele>-42</ele>
        <time>2012-02-17T08:53:46</time>
      </trkpt>
      <trkpt lat="47.7079" lon="-2.50987">
        <ele>-34</ele>
        <time>2012-02-17T08:54:47</time>
      </trkpt>
      <trkpt lat="47.7072" lon="-2.50957">
        <ele>-30</ele>
        <time>2012-02-17T08:55:47</time>
      </trkpt>
      <trkpt lat="47.7068" lon="-2.50886">
        <ele>-24</ele>
        <time>2012-02-17T08:56:47</time>
      </trkpt>
      <trkpt lat="47.7063" lon="-2.50837">
        <ele>-20</ele>
        <time>2012-02-17T08:57:47</time>
      </trkpt>
      <trkpt lat="47.7056" lon="-2.50849">
        <ele>-19</ele>
        <time>2012-02-17T08:58:48</time>
      </trkpt>
      <trkpt lat="47.7049" lon="-2.50867">
        <ele>-25</ele>
        <time>2012-02-17T08:59:48</time>
      </trkpt>
      <trkpt lat="47.7043" lon="-2.50851">
        <ele>-32</ele>
        <time>2012-02-17T09:00:49</time>
      </trkpt>
      <trkpt lat="47.7036" lon="-2.50855">
        <ele>-25</ele>
        <time>2012-02-17T09:01:48</time>
      </trkpt>
      <trkpt lat="47.7031" lon="-2.50904">
        <ele>-31</ele>
        <time>2012-02-17T09:02:49</time>
      </trkpt>
      <trkpt lat="47.7028" lon="-2.50984">
        <ele>-27</ele>
        <time>2012-02-17T09:03:49</time>
      </trkpt>
      <trkpt lat="47.7031" lon="-2.51015">
        <ele>-25</ele>
        <time>2012-02-17T09:04:51</time>
      </trkpt>
      <trkpt lat="47.7035" lon="-2.50996">
        <ele>-25</ele>
        <time>2012-02-17T09:05:50</time>
      </trkpt>
      <trkpt lat="47.7037" lon="-2.51043">
        <ele>-12</ele>
        <time>2012-02-17T09:06:51</time>
      </trkpt>
      <trkpt lat="47.7044" lon="-2.51068">
        <ele>-14</ele>
        <time>2012-02-17T09:07:51</time>
      </trkpt>
      <trkpt lat="47.7046" lon="-2.51139">
        <ele>-7</ele>
        <time>2012-02-17T09:08:51</time>
      </trkpt>
      <trkpt lat="47.7048" lon="-2.51233">
        <ele>-5</ele>
        <time>2012-02-17T09:09:51</time>
      </trkpt>
      <trkpt lat="47.705" lon="-2.5133">
        <ele>-5</ele>
        <time>2012-02-17T09:10:53</time>
      </trkpt>
      <trkpt lat="47.7053" lon="-2.514">
        <ele>-7</ele>
        <time>2012-02-17T09:11:52</time>
      </trkpt>
      <trkpt lat="47.7055" lon="-2.51479">
        <ele>-4</ele>
        <time>2012-02-17T09:12:53</time>
      </trkpt>
      <trkpt lat="47.7058" lon="-2.51563">
        <ele>-3</ele>
        <time>2012-02-17T09:13:53</time>
      </trkpt>
      <trkpt lat="47.7062" lon="-2.51652">
        <ele>-4</ele>
        <time>2012-02-17T09:14:53</time>
      </trkpt>
      <trkpt lat="47.7059" lon="-2.51714">
        <ele>-3</ele>
        <time>2012-02-17T09:15:53</time>
      </trkpt>
      <trkpt lat="47.7057" lon="-2.51779">
        <ele>-9</ele>
        <time>2012-02-17T09:16:55</time>
      </trkpt>
      <trkpt lat="47.7051" lon="-2.51817">
        <ele>-11</ele>
        <time>2012-02-17T09:17:54</time>
      </trkpt>
      <trkpt lat="47.7044" lon="-2.51812">
        <ele>-7</ele>
        <time>2012-02-17T09:18:55</time>
      </trkpt>
      <trkpt lat="47.704" lon="-2.51808">
        <ele>-10</ele>
        <time>2012-02-17T09:19:55</time>
      </trkpt>
      <trkpt lat="47.7041" lon="-2.51893">
        <ele>-15</ele>
        <time>2012-02-17T09:20:55</time>
      </trkpt>
      <trkpt lat="47.7044" lon="-2.51959">
        <ele>-12</ele>
        <time>2012-02-17T09:21:55</time>
      </trkpt>
      <trkpt lat="47.705" lon="-2.51945">
        <ele>-9</ele>
        <time>2012-02-17T09:22:57</time>
      </trkpt>
      <trkpt lat="47.7057" lon="-2.51965">
        <ele>-8</ele>
        <time>2012-02-17T09:23:56</time>
      </trkpt>
      <trkpt lat="47.7065" lon="-2.52008">
        <ele>-7</ele>
        <time>2012-02-17T09:24:56</time>
      </trkpt>
      <trkpt lat="47.707" lon="-2.52024">
        <ele>-7</ele>
        <time>2012-02-17T09:25:57</time>
      </trkpt>
      <trkpt lat="47.7072" lon="-2.52119">
        <ele>-2</ele>
        <time>2012-02-17T09:26:57</time>
      </trkpt>
      <trkpt lat="47.7071" lon="-2.52204">
        <ele>132.4</ele>
        <time>2012-02-17T09:27:58</time>
      </trkpt>
      <trkpt lat="47.7075" lon="-2.52294">
        <ele>-1</ele>
        <time>2012-02-17T09:28:59</time>
      </trkpt>
      <trkpt lat="47.7072" lon="-2.5238">
        <ele>-5</ele>
        <time>2012-02-17T09:29:58</time>
      </trkpt>
      <trkpt lat="47.7067" lon="-2.52446">
        <ele>-8</ele>
        <time>2012-02-17T09:30:58</time>
      </trkpt>
      <trkpt lat="47.7062" lon="-2.52494">
        <ele>-3</ele>
        <time>2012-02-17T09:31:59</time>
      </trkpt>
      <trkpt lat="47.7062" lon="-2.52601">
        <ele>-5</ele>
        <time>2012-02-17T09:32:59</time>
      </trkpt>
      <trkpt lat="47.7059" lon="-2.52708">
        <ele>-9</ele>
        <time>2012-02-17T09:34:00</time>
      </trkpt>
      <trkpt lat="47.7054" lon="-2.52785">
        <ele>-12</ele>
        <time>2012-02-17T09:35:01</time>
      </trkpt>
      <trkpt lat="47.7052" lon="-2.5288">
        <ele>-20</ele>
        <time>2012-02-17T09:36:00</time>
      </trkpt>
      <trkpt lat="47.7053" lon="-2.52913">
        <ele>-13</ele>
        <time>2012-02-17T09:37:01</time>
      </trkpt>
      <trkpt lat="47.7053" lon="-2.52918">
        <ele>-14</ele>
        <time>2012-02-17T09:38:01</time>
      </trkpt>
      <trkpt lat="47.7059" lon="-2.52937">
        <ele>-11</ele>
        <time>2012-02-17T09:39:01</time>
      </trkpt>
      <trkpt lat="47.7066" lon="-2.52962">
        <ele>-13</ele>
        <time>2012-02-17T09:40:03</time>
      </trkpt>
      <trkpt lat="47.7071" lon="-2.53049">
        <ele>-13</ele>
        <time>2012-02-17T09:41:02</time>
      </trkpt>
      <trkpt lat="47.7074" lon="-2.5315">
        <ele>-16</ele>
        <time>2012-02-17T09:42:03</time>
      </trkpt>
      <trkpt lat="47.7077" lon="-2.5325">
        <ele>-21</ele>
        <time>2012-02-17T09:43:04</time>
      </trkpt>
      <trkpt lat="47.708" lon="-2.53343">
        <ele>-27</ele>
        <time>2012-02-17T09:44:03</time>
      </trkpt>
      <trkpt lat="47.7083" lon="-2.53436">
        <ele>-35</ele>
        <time>2012-02-17T09:45:03</time>
      </trkpt>
      <trkpt lat="47.7088" lon="-2.53491">
        <ele>-41</ele>
        <time>2012-02-17T09:46:04</time>
      </trkpt>
      <trkpt lat="47.7096" lon="-2.53491">
        <ele>-41</ele>
        <time>2012-02-17T09:47:04</time>
      </trkpt>
      <trkpt lat="47.7102" lon="-2.53472">
        <ele>-41</ele>
        <time>2012-02-17T09:48:05</time>
      </trkpt>
      <trkpt lat="47.7109" lon="-2.53429">
        <ele>-38</ele>
        <time>2012-02-17T09:49:04</time>
      </trkpt>
      <trkpt lat="47.7117" lon="-2.53428">
        <ele>-36</ele>
        <time>2012-02-17T09:50:05</time>
      </trkpt>
      <trkpt lat="47.7124" lon="-2.5345">
        <ele>-36</ele>
        <time>2012-02-17T09:51:05</time>
      </trkpt>
      <trkpt lat="47.713" lon="-2.53495">
        <ele>-34</ele>
        <time>2012-02-17T09:52:06</time>
      </trkpt>
      <trkpt lat="47.7135" lon="-2.53476">
        <ele>-34</ele>
        <time>2012-02-17T09:53:06</time>
      </trkpt>
      <trkpt lat="47.7142" lon="-2.53445">
        <ele>-33</ele>
        <time>2012-02-17T09:54:07</time>
      </trkpt>
      <trkpt lat="47.7149" lon="-2.53455">
        <ele>-36</ele>
        <time>2012-02-17T09:55:07</time>
      </trkpt>
      <trkpt lat="47.7154" lon="-2.53445">
        <ele>-39</ele>
        <time>2012-02-17T09:56:07</time>
      </trkpt>
      <trkpt lat="47.7161" lon="-2.53463">
        <ele>-41</ele>
        <time>2012-02-17T09:57:07</time>
      </trkpt>
      <trkpt lat="47.7167" lon="-2.53441">
        <ele>-43</ele>
        <time>2012-02-17T09:58:09</time>
      </trkpt>
      <trkpt lat="47.7174" lon="-2.53388">
        <ele>-43</ele>
        <time>2012-02-17T09:59:08</time>
      </trkpt>
      <trkpt lat="47.7182" lon="-2.53359">
        <ele>-44</ele>
        <time>2012-02-17T10:00:09</time>
      </trkpt>
      <trkpt lat="47.7189" lon="-2.53351">
        <ele>-49</ele>
        <time>2012-02-17T10:01:10</time>
      </trkpt>
      <trkpt lat="47.7196" lon="-2.53344">
        <ele>-57</ele>
        <time>2012-02-17T10:02:10</time>
      </trkpt>
      <trkpt lat="47.7201" lon="-2.53296">
        <ele>-62</ele>
        <time>2012-02-17T10:03:09</time>
      </trkpt>
      <trkpt lat="47.7208" lon="-2.5325">
        <ele>-69</ele>
        <time>2012-02-17T10:04:11</time>
      </trkpt>
      <trkpt lat="47.7215" lon="-2.5319">
        <ele>-78</ele>
        <time>2012-02-17T10:05:10</time>
      </trkpt>
      <trkpt lat="47.7217" lon="-2.53073">
        <ele>-80</ele>
        <time>2012-02-17T10:06:11</time>
      </trkpt>
      <trkpt lat="47.722" lon="-2.52985">
        <ele>-80</ele>
        <time>2012-02-17T10:07:12</time>
      </trkpt>
      <trkpt lat="47.7225" lon="-2.52906">
        <ele>-79</ele>
        <time>2012-02-17T10:08:11</time>
      </trkpt>
      <trkpt lat="47.723" lon="-2.52837">
        <ele>-84</ele>
        <time>2012-02-17T10:09:11</time>
      </trkpt>
      <trkpt lat="47.7232" lon="-2.52818">
        <ele>-84</ele>
        <time>2012-02-17T10:10:13</time>
      </trkpt>
      <trkpt lat="47.723" lon="-2.52804">
        <ele>-81</ele>
        <time>2012-02-17T10:11:12</time>
      </trkpt>
      <trkpt lat="47.7222" lon="-2.52781">
        <ele>-78</ele>
        <time>2012-02-17T10:12:13</time>
      </trkpt>
      <trkpt lat="47.7216" lon="-2.52723">
        <ele>-72</ele>
        <time>2012-02-17T10:13:13</time>
      </trkpt>
      <trkpt lat="47.7209" lon="-2.52685">
        <ele>-68</ele>
        <time>2012-02-17T10:14:13</time>
      </trkpt>
      <trkpt lat="47.721" lon="-2.52607">
        <ele>-60</ele>
        <time>2012-02-17T10:15:13</time>
      </trkpt>
      <trkpt lat="47.7213" lon="-2.52507">
        <ele>-54</ele>
        <time>2012-02-17T10:16:15</time>
      </trkpt>
      <trkpt lat="47.7215" lon="-2.52402">
        <ele>-53</ele>
        <time>2012-02-17T10:17:14</time>
      </trkpt>
      <trkpt lat="47.7214" lon="-2.52289">
        <ele>-51</ele>
        <time>2012-02-17T10:18:15</time>
      </trkpt>
      <trkpt lat="47.7214" lon="-2.52177">
        <ele>-53</ele>
        <time>2012-02-17T10:19:15</time>
      </trkpt>
      <trkpt lat="47.7214" lon="-2.52066">
        <ele>-54</ele>
        <time>2012-02-17T10:20:15</time>
      </trkpt>
      <trkpt lat="47.7214" lon="-2.51957">
        <ele>-58</ele>
        <time>2012-02-17T10:21:15</time>
      </trkpt>
      <trkpt lat="47.7213" lon="-2.51855">
        <ele>-59</ele>
        <time>2012-02-17T10:22:16</time>
      </trkpt>
      <trkpt lat="47.721" lon="-2.51754">
        <ele>-65</ele>
        <time>2012-02-17T10:23:16</time>
      </trkpt>
      <trkpt lat="47.7207" lon="-2.51671">
        <ele>-70</ele>
        <time>2012-02-17T10:24:17</time>
      </trkpt>
      <trkpt lat="47.7201" lon="-2.51698">
        <ele>-69</ele>
        <time>2012-02-17T10:25:17</time>
      </trkpt>
      <trkpt lat="47.7194" lon="-2.51652">
        <ele>-67</ele>
        <time>2012-02-17T10:26:17</time>
      </trkpt>
      <trkpt lat="47.7194" lon="-2.51577">
        <ele>-64</ele>
        <time>2012-02-17T10:27:17</time>
      </trkpt>
      <trkpt lat="47.7196" lon="-2.51467">
        <ele>-64</ele>
        <time>2012-02-17T10:28:19</time>
      </trkpt>
      <trkpt lat="47.7195" lon="-2.51359">
        <ele>-60</ele>
        <time>2012-02-17T10:29:18</time>
      </trkpt>
      <trkpt lat="47.7191" lon="-2.51267">
        <ele>-59</ele>
        <time>2012-02-17T10:30:19</time>
      </trkpt>
      <trkpt lat="47.7197" lon="-2.51232">
        <ele>-62</ele>
        <time>2012-02-17T10:31:20</time>
      </trkpt>
      <trkpt lat="47.7203" lon="-2.51211">
        <ele>-63</ele>
        <time>2012-02-17T10:32:20</time>
      </trkpt>
      <trkpt lat="47.7205" lon="-2.51127">
        <ele>-62</ele>
        <time>2012-02-17T10:33:19</time>
      </trkpt>
      <trkpt lat="47.7203" lon="-2.51029">
        <ele>-64</ele>
        <time>2012-02-17T10:34:21</time>
      </trkpt>
      <trkpt lat="47.7201" lon="-2.50935">
        <ele>-68</ele>
        <time>2012-02-17T10:35:20</time>
      </trkpt>
      <trkpt lat="47.7199" lon="-2.50845">
        <ele>-75</ele>
        <time>2012-02-17T10:36:21</time>
      </trkpt>
      <trkpt lat="47.7197" lon="-2.50815">
        <ele>-77</ele>
        <time>2012-02-17T10:37:22</time>
      </trkpt>
      <trkpt lat="47.7197" lon="-2.50811">
        <ele>-77</ele>
        <time>2012-02-17T10:38:22</time>
      </trkpt>
      <trkpt lat="47.7197" lon="-2.5081">
        <ele>-77</ele>
        <time>2012-02-17T10:39:21</time>
      </trkpt>
      <trkpt lat="47.7197" lon="-2.50812">
        <ele>-78</ele>
        <time>2012-02-17T10:40:23</time>
      </trkpt>
      <trkpt lat="47.7196" lon="-2.50823">
        <ele>-76</ele>
        <time>2012-02-17T10:41:22</time>
      </trkpt>
      <trkpt lat="47.7192" lon="-2.50903">
        <ele>-77</ele>
        <time>2012-02-17T10:42:22</time>
      </trkpt>
      <trkpt lat="47.7188" lon="-2.50985">
        <ele>-77</ele>
        <time>2012-02-17T10:43:24</time>
      </trkpt>
      <trkpt lat="47.7182" lon="-2.50969">
        <ele>-78</ele>
        <time>2012-02-17T10:44:23</time>
      </trkpt>
      <trkpt lat="47.7176" lon="-2.50939">
        <ele>-72</ele>
        <time>2012-02-17T10:45:23</time>
      </trkpt>
      <trkpt lat="47.7171" lon="-2.50929">
        <ele>-68</ele>
        <time>2012-02-17T10:46:24</time>
      </trkpt>
      <trkpt lat="47.7165" lon="-2.50932">
        <ele>-59</ele>
        <time>2012-02-17T10:47:24</time>
      </trkpt>
      <trkpt lat="47.716" lon="-2.5096">
        <ele>-53</ele>
        <time>2012-02-17T10:48:24</time>
      </trkpt>
      <trkpt lat="47.7153" lon="-2.50967">
        <ele>-51</ele>
        <time>2012-02-17T10:49:25</time>
      </trkpt>
      <trkpt lat="47.7146" lon="-2.50952">
        <ele>-53</ele>
        <time>2012-02-17T10:50:25</time>
      </trkpt>
      <trkpt lat="47.7139" lon="-2.50961">
        <ele>-59</ele>
        <time>2012-02-17T10:51:25</time>
      </trkpt>
      <trkpt lat="47.7134" lon="-2.50994">
        <ele>-58</ele>
        <time>2012-02-17T10:52:26</time>
      </trkpt>
      <trkpt lat="47.7127" lon="-2.50999">
        <ele>-51</ele>
        <time>2012-02-17T10:53:26</time>
      </trkpt>
      <trkpt lat="47.7121" lon="-2.51034">
        <ele>-46</ele>
        <time>2012-02-17T10:54:26</time>
      </trkpt>
      <trkpt lat="47.7117" lon="-2.51121">
        <ele>-42</ele>
        <time>2012-02-17T10:55:27</time>
      </trkpt>
      <trkpt lat="47.7112" lon="-2.51196">
        <ele>-47</ele>
        <time>2012-02-17T10:56:27</time>
      </trkpt>
      <trkpt lat="47.7105" lon="-2.51218">
        <ele>-51</ele>
        <time>2012-02-17T10:57:27</time>
      </trkpt>
      <trkpt lat="47.7101" lon="-2.51292">
        <ele>-59</ele>
        <time>2012-02-17T10:58:28</time>
      </trkpt>
      <trkpt lat="47.7105" lon="-2.51294">
        <ele>-61</ele>
        <time>2012-02-17T10:59:28</time>
      </trkpt>
      <trkpt lat="47.7106" lon="-2.51306">
        <ele>-62</ele>
        <time>2012-02-17T11:00:28</time>
      </trkpt>
      <trkpt lat="47.7112" lon="-2.51364">
        <ele>-65</ele>
        <time>2012-02-17T11:01:29</time>
      </trkpt>
      <trkpt lat="47.7117" lon="-2.51441">
        <ele>-55</ele>
        <time>2012-02-17T11:02:29</time>
      </trkpt>
    </trkseg>
  </trk>
</gpx>